sensor_id;sensor_type;location;lat;lon;timestamp;temperature;humidity
51765;DHT22;37835;53.256;6.456;2023-03-01T00:01:45;0.00;99.90
51765;DHT22;37835;53.256;6.456;2023-03-01T00:04:11;-0.20;99.90
51765;DHT22;37835;53.256;6.456;2023-03-01T00:06:37;-0.30;99.90
51765;DHT22;37835;53.256;6.456;2023-03-01T00:09:03;-0.40;99.90
51765;DHT22;37835;53.256;6.456;2023-03-01T00:11:31;-0.30;99.90
51765;DHT22;37835;53.256;6.456;2023-03-01T00:13:58;-0.90;99.90
51765;DHT22;37835;53.256;6.456;2023-03-01T00:16:28;0.40;99.90
51765;DHT22;37835;53.256;6.456;2023-03-01T00:18:57;-0.50;99.90
51765;DHT22;37835;53.256;6.456;2023-03-01T00:21:23;-0.60;99.90
51765;DHT22;37835;53.256;6.456;2023-03-01T00:23:49;-0.50;99.90
51765;DHT22;37835;53.256;6.456;2023-03-01T00:26:16;-0.40;99.90
51765;DHT22;37835;53.256;6.456;2023-03-01T00:28:43;-0.30;99.90
51765;DHT22;37835;53.256;6.456;2023-03-01T00:31:14;-0.60;99.90
51765;DHT22;37835;53.256;6.456;2023-03-01T00:33:41;-0.80;99.90
51765;DHT22;37835;53.256;6.456;2023-03-01T00:36:07;-0.90;99.90
51765;DHT22;37835;53.256;6.456;2023-03-01T00:38:44;-0.90;99.90
51765;DHT22;37835;53.256;6.456;2023-03-01T00:41:15;-0.90;99.90
51765;DHT22;37835;53.256;6.456;2023-03-01T00:43:41;-1.00;99.90
51765;DHT22;37835;53.256;6.456;2023-03-01T00:46:09;-1.00;99.90
51765;DHT22;37835;53.256;6.456;2023-03-01T00:48:35;-1.10;99.90
51765;DHT22;37835;53.256;6.456;2023-03-01T00:53:31;-2.30;99.90
51765;DHT22;37835;53.256;6.456;2023-03-01T00:55:57;-1.20;99.90
51765;DHT22;37835;53.256;6.456;2023-03-01T00:58:23;-1.00;99.90
51765;DHT22;37835;53.256;6.456;2023-03-01T01:00:49;-1.30;99.90
51765;DHT22;37835;53.256;6.456;2023-03-01T01:03:14;-1.40;99.90
51765;DHT22;37835;53.256;6.456;2023-03-01T01:05:40;-1.20;99.90
51765;DHT22;37835;53.256;6.456;2023-03-01T01:08:05;-1.50;99.90
51765;DHT22;37835;53.256;6.456;2023-03-01T01:10:34;0.80;99.90
51765;DHT22;37835;53.256;6.456;2023-03-01T01:12:59;-1.30;99.90
51765;DHT22;37835;53.256;6.456;2023-03-01T01:15:26;-1.60;99.90
51765;DHT22;37835;53.256;6.456;2023-03-01T01:17:51;-1.60;99.90
51765;DHT22;37835;53.256;6.456;2023-03-01T01:20:17;-1.60;99.90
51765;DHT22;37835;53.256;6.456;2023-03-01T01:22:43;-1.60;99.90
51765;DHT22;37835;53.256;6.456;2023-03-01T01:25:08;-1.60;99.90
51765;DHT22;37835;53.256;6.456;2023-03-01T01:27:34;-1.70;99.90
51765;DHT22;37835;53.256;6.456;2023-03-01T01:30:00;-1.70;99.90
51765;DHT22;37835;53.256;6.456;2023-03-01T01:32:26;-1.70;99.90
51765;DHT22;37835;53.256;6.456;2023-03-01T01:34:51;0.10;99.90
51765;DHT22;37835;53.256;6.456;2023-03-01T01:37:17;-1.80;99.90
51765;DHT22;37835;53.256;6.456;2023-03-01T01:39:42;-1.90;99.90
51765;DHT22;37835;53.256;6.456;2023-03-01T01:42:18;-1.90;99.90
51765;DHT22;37835;53.256;6.456;2023-03-01T01:44:46;-1.90;99.90
51765;DHT22;37835;53.256;6.456;2023-03-01T01:47:18;-1.40;99.90
51765;DHT22;37835;53.256;6.456;2023-03-01T01:49:54;-2.00;99.90
51765;DHT22;37835;53.256;6.456;2023-03-01T01:52:27;-2.00;99.90
51765;DHT22;37835;53.256;6.456;2023-03-01T01:55:19;-2.00;99.90
51765;DHT22;37835;53.256;6.456;2023-03-01T01:58:04;-2.00;99.90
51765;DHT22;37835;53.256;6.456;2023-03-01T02:00:30;-2.00;99.90
51765;DHT22;37835;53.256;6.456;2023-03-01T02:03:00;-2.00;99.90
51765;DHT22;37835;53.256;6.456;2023-03-01T02:08:14;-2.10;99.90
51765;DHT22;37835;53.256;6.456;2023-03-01T02:10:42;-1.70;99.90
51765;DHT22;37835;53.256;6.456;2023-03-01T02:15:36;-2.20;99.90
51765;DHT22;37835;53.256;6.456;2023-03-01T02:18:02;-2.20;99.90
51765;DHT22;37835;53.256;6.456;2023-03-01T02:20:59;-2.20;99.90
51765;DHT22;37835;53.256;6.456;2023-03-01T02:23:25;-2.20;99.90
51765;DHT22;37835;53.256;6.456;2023-03-01T02:25:57;-2.20;99.90
51765;DHT22;37835;53.256;6.456;2023-03-01T02:28:29;-2.20;99.90
51765;DHT22;37835;53.256;6.456;2023-03-01T02:30:55;-2.20;99.90
51765;DHT22;37835;53.256;6.456;2023-03-01T02:33:39;-2.30;99.90
51765;DHT22;37835;53.256;6.456;2023-03-01T02:36:15;-2.30;99.90
51765;DHT22;37835;53.256;6.456;2023-03-01T02:38:42;-2.40;99.90
51765;DHT22;37835;53.256;6.456;2023-03-01T02:41:09;-0.70;99.90
51765;DHT22;37835;53.256;6.456;2023-03-01T02:43:36;-0.50;99.90
51765;DHT22;37835;53.256;6.456;2023-03-01T02:46:07;-2.40;99.90
51765;DHT22;37835;53.256;6.456;2023-03-01T02:48:46;-2.60;99.90
51765;DHT22;37835;53.256;6.456;2023-03-01T02:54:18;-2.60;99.90
51765;DHT22;37835;53.256;6.456;2023-03-01T02:56:47;-3.60;99.90
51765;DHT22;37835;53.256;6.456;2023-03-01T02:59:16;-2.40;99.90
51765;DHT22;37835;53.256;6.456;2023-03-01T03:01:43;-2.40;99.90
51765;DHT22;37835;53.256;6.456;2023-03-01T03:04:13;-2.10;99.90
51765;DHT22;37835;53.256;6.456;2023-03-01T03:06:43;-2.50;99.90
51765;DHT22;37835;53.256;6.456;2023-03-01T03:09:09;-2.40;99.90
51765;DHT22;37835;53.256;6.456;2023-03-01T03:11:35;-2.50;99.90
51765;DHT22;37835;53.256;6.456;2023-03-01T03:14:02;-2.30;99.90
51765;DHT22;37835;53.256;6.456;2023-03-01T03:18:56;-2.50;99.90
51765;DHT22;37835;53.256;6.456;2023-03-01T03:21:33;-2.40;99.90
51765;DHT22;37835;53.256;6.456;2023-03-01T03:23:59;-0.20;99.90
51765;DHT22;37835;53.256;6.456;2023-03-01T03:26:24;0.40;99.90
51765;DHT22;37835;53.256;6.456;2023-03-01T03:28:50;-2.50;99.90
51765;DHT22;37835;53.256;6.456;2023-03-01T03:31:16;-2.40;99.90
51765;DHT22;37835;53.256;6.456;2023-03-01T03:33:41;-2.40;99.90
51765;DHT22;37835;53.256;6.456;2023-03-01T03:36:07;-0.70;99.90
51765;DHT22;37835;53.256;6.456;2023-03-01T03:38:38;-2.80;99.90
51765;DHT22;37835;53.256;6.456;2023-03-01T03:41:06;-5.00;99.90
51765;DHT22;37835;53.256;6.456;2023-03-01T03:43:35;-3.50;99.90
51765;DHT22;37835;53.256;6.456;2023-03-01T03:46:01;-0.20;99.90
51765;DHT22;37835;53.256;6.456;2023-03-01T03:48:49;-2.70;99.90
51765;DHT22;37835;53.256;6.456;2023-03-01T03:51:16;-4.70;99.90
51765;DHT22;37835;53.256;6.456;2023-03-01T03:53:43;-2.80;99.90
51765;DHT22;37835;53.256;6.456;2023-03-01T03:56:09;-0.10;99.90
51765;DHT22;37835;53.256;6.456;2023-03-01T03:58:35;-2.40;99.90
51765;DHT22;37835;53.256;6.456;2023-03-01T04:01:00;-1.40;99.90
51765;DHT22;37835;53.256;6.456;2023-03-01T04:03:27;-3.10;99.90
51765;DHT22;37835;53.256;6.456;2023-03-01T04:05:53;-3.20;99.90
51765;DHT22;37835;53.256;6.456;2023-03-01T04:08:21;-3.10;99.90
51765;DHT22;37835;53.256;6.456;2023-03-01T04:10:50;-3.00;99.90
51765;DHT22;37835;53.256;6.456;2023-03-01T04:13:21;-2.30;99.90
51765;DHT22;37835;53.256;6.456;2023-03-01T04:15:51;-1.50;99.90
51765;DHT22;37835;53.256;6.456;2023-03-01T04:18:18;-2.90;99.90
51765;DHT22;37835;53.256;6.456;2023-03-01T04:20:45;-2.70;99.90
51765;DHT22;37835;53.256;6.456;2023-03-01T04:23:14;-4.90;99.90
51765;DHT22;37835;53.256;6.456;2023-03-01T04:25:50;-2.30;99.90
51765;DHT22;37835;53.256;6.456;2023-03-01T04:28:33;-2.80;99.90
51765;DHT22;37835;53.256;6.456;2023-03-01T04:31:04;-2.90;99.90
51765;DHT22;37835;53.256;6.456;2023-03-01T04:33:53;-2.80;99.90
51765;DHT22;37835;53.256;6.456;2023-03-01T04:36:22;-2.70;99.90
51765;DHT22;37835;53.256;6.456;2023-03-01T04:38:48;-2.70;99.90
51765;DHT22;37835;53.256;6.456;2023-03-01T04:41:16;-2.30;99.90
51765;DHT22;37835;53.256;6.456;2023-03-01T04:43:42;-2.70;99.90
51765;DHT22;37835;53.256;6.456;2023-03-01T04:46:11;-3.30;99.90
51765;DHT22;37835;53.256;6.456;2023-03-01T04:48:38;-3.20;99.90
51765;DHT22;37835;53.256;6.456;2023-03-01T04:51:04;-3.50;99.90
51765;DHT22;37835;53.256;6.456;2023-03-01T04:53:31;-2.70;99.90
51765;DHT22;37835;53.256;6.456;2023-03-01T04:58:25;-2.70;99.90
51765;DHT22;37835;53.256;6.456;2023-03-01T05:00:51;-3.40;99.90
51765;DHT22;37835;53.256;6.456;2023-03-01T05:03:17;-2.10;99.90
51765;DHT22;37835;53.256;6.456;2023-03-01T05:05:44;-2.70;99.90
51765;DHT22;37835;53.256;6.456;2023-03-01T05:08:10;-3.40;99.90
51765;DHT22;37835;53.256;6.456;2023-03-01T05:10:51;-1.60;99.90
51765;DHT22;37835;53.256;6.456;2023-03-01T05:13:18;-3.50;99.90
51765;DHT22;37835;53.256;6.456;2023-03-01T05:15:58;-3.50;99.90
51765;DHT22;37835;53.256;6.456;2023-03-01T05:18:24;-3.30;99.90
51765;DHT22;37835;53.256;6.456;2023-03-01T05:21:03;-3.10;99.90
51765;DHT22;37835;53.256;6.456;2023-03-01T05:23:31;-3.40;99.90
51765;DHT22;37835;53.256;6.456;2023-03-01T05:26:00;-4.70;99.90
51765;DHT22;37835;53.256;6.456;2023-03-01T05:28:27;-4.50;99.90
51765;DHT22;37835;53.256;6.456;2023-03-01T05:30:54;-3.90;99.90
51765;DHT22;37835;53.256;6.456;2023-03-01T05:33:19;-4.10;99.90
51765;DHT22;37835;53.256;6.456;2023-03-01T05:35:47;-3.00;99.90
51765;DHT22;37835;53.256;6.456;2023-03-01T05:38:15;-2.80;99.90
51765;DHT22;37835;53.256;6.456;2023-03-01T05:40:43;-3.40;99.90
51765;DHT22;37835;53.256;6.456;2023-03-01T05:43:10;-3.50;99.90
51765;DHT22;37835;53.256;6.456;2023-03-01T05:45:37;-2.50;99.90
51765;DHT22;37835;53.256;6.456;2023-03-01T05:48:04;-2.80;99.90
51765;DHT22;37835;53.256;6.456;2023-03-01T05:50:33;-3.10;99.90
51765;DHT22;37835;53.256;6.456;2023-03-01T05:53:09;-4.90;99.90
51765;DHT22;37835;53.256;6.456;2023-03-01T05:55:36;-0.20;99.90
51765;DHT22;37835;53.256;6.456;2023-03-01T05:58:04;-2.10;99.90
51765;DHT22;37835;53.256;6.456;2023-03-01T06:00:30;-3.80;99.90
51765;DHT22;37835;53.256;6.456;2023-03-01T06:02:56;-3.90;99.90
51765;DHT22;37835;53.256;6.456;2023-03-01T06:05:23;-3.10;99.90
51765;DHT22;37835;53.256;6.456;2023-03-01T06:07:49;-3.40;99.90
51765;DHT22;37835;53.256;6.456;2023-03-01T06:10:16;-3.70;99.90
51765;DHT22;37835;53.256;6.456;2023-03-01T06:12:42;-3.30;99.90
51765;DHT22;37835;53.256;6.456;2023-03-01T06:15:13;-4.40;99.90
51765;DHT22;37835;53.256;6.456;2023-03-01T06:17:41;-2.00;99.90
51765;DHT22;37835;53.256;6.456;2023-03-01T06:22:41;-4.10;99.90
51765;DHT22;37835;53.256;6.456;2023-03-01T06:25:07;-4.30;99.90
51765;DHT22;37835;53.256;6.456;2023-03-01T06:27:34;-4.30;99.90
51765;DHT22;37835;53.256;6.456;2023-03-01T06:32:25;-4.00;99.90
51765;DHT22;37835;53.256;6.456;2023-03-01T06:37:17;-3.30;99.90
51765;DHT22;37835;53.256;6.456;2023-03-01T06:39:43;-4.20;99.90
51765;DHT22;37835;53.256;6.456;2023-03-01T06:42:09;-4.20;99.90
51765;DHT22;37835;53.256;6.456;2023-03-01T06:44:38;-3.80;99.90
51765;DHT22;37835;53.256;6.456;2023-03-01T06:47:04;-4.10;99.90
51765;DHT22;37835;53.256;6.456;2023-03-01T06:49:29;-3.60;99.90
51765;DHT22;37835;53.256;6.456;2023-03-01T06:51:55;-3.80;99.90
51765;DHT22;37835;53.256;6.456;2023-03-01T06:56:48;-3.00;99.90
51765;DHT22;37835;53.256;6.456;2023-03-01T06:59:14;-5.10;99.90
51765;DHT22;37835;53.256;6.456;2023-03-01T07:01:40;-4.30;99.90
51765;DHT22;37835;53.256;6.456;2023-03-01T07:04:05;-4.60;99.90
51765;DHT22;37835;53.256;6.456;2023-03-01T07:06:31;-3.70;99.90
51765;DHT22;37835;53.256;6.456;2023-03-01T07:08:56;-5.50;99.90
51765;DHT22;37835;53.256;6.456;2023-03-01T07:11:22;-4.00;99.90
51765;DHT22;37835;53.256;6.456;2023-03-01T07:13:48;-3.50;99.90
51765;DHT22;37835;53.256;6.456;2023-03-01T07:16:14;-3.40;99.90
51765;DHT22;37835;53.256;6.456;2023-03-01T07:18:40;-3.50;99.90
51765;DHT22;37835;53.256;6.456;2023-03-01T07:21:07;-3.50;99.90
51765;DHT22;37835;53.256;6.456;2023-03-01T07:23:33;-3.60;99.90
51765;DHT22;37835;53.256;6.456;2023-03-01T07:25:59;-3.70;99.90
51765;DHT22;37835;53.256;6.456;2023-03-01T07:28:26;-1.90;99.90
51765;DHT22;37835;53.256;6.456;2023-03-01T07:30:51;-2.80;99.90
51765;DHT22;37835;53.256;6.456;2023-03-01T07:33:17;-4.70;99.90
51765;DHT22;37835;53.256;6.456;2023-03-01T07:35:43;-4.50;99.90
51765;DHT22;37835;53.256;6.456;2023-03-01T07:38:09;-2.70;99.90
51765;DHT22;37835;53.256;6.456;2023-03-01T07:40:35;-3.10;99.90
51765;DHT22;37835;53.256;6.456;2023-03-01T07:43:00;-3.10;99.90
51765;DHT22;37835;53.256;6.456;2023-03-01T07:45:27;-3.50;99.90
51765;DHT22;37835;53.256;6.456;2023-03-01T07:47:53;-3.80;99.90
51765;DHT22;37835;53.256;6.456;2023-03-01T07:50:20;-2.80;99.90
51765;DHT22;37835;53.256;6.456;2023-03-01T07:52:47;-1.00;99.90
51765;DHT22;37835;53.256;6.456;2023-03-01T07:55:13;-2.80;99.90
51765;DHT22;37835;53.256;6.456;2023-03-01T07:57:38;-0.40;99.90
51765;DHT22;37835;53.256;6.456;2023-03-01T08:00:05;-2.50;99.90
51765;DHT22;37835;53.256;6.456;2023-03-01T08:02:31;-2.30;99.90
51765;DHT22;37835;53.256;6.456;2023-03-01T08:04:56;-2.50;99.90
51765;DHT22;37835;53.256;6.456;2023-03-01T08:07:22;-2.70;99.90
51765;DHT22;37835;53.256;6.456;2023-03-01T08:09:47;-4.90;99.90
51765;DHT22;37835;53.256;6.456;2023-03-01T08:12:13;-2.60;99.90
51765;DHT22;37835;53.256;6.456;2023-03-01T08:14:39;-1.70;99.90
51765;DHT22;37835;53.256;6.456;2023-03-01T08:17:04;-2.00;99.90
51765;DHT22;37835;53.256;6.456;2023-03-01T08:19:30;-2.00;99.90
51765;DHT22;37835;53.256;6.456;2023-03-01T08:21:56;-1.90;99.90
51765;DHT22;37835;53.256;6.456;2023-03-01T08:24:24;-1.70;99.90
51765;DHT22;37835;53.256;6.456;2023-03-01T08:26:49;-0.60;99.90
51765;DHT22;37835;53.256;6.456;2023-03-01T08:29:15;-1.40;99.90
51765;DHT22;37835;53.256;6.456;2023-03-01T08:31:40;-0.50;99.90
51765;DHT22;37835;53.256;6.456;2023-03-01T08:34:12;-0.90;99.90
51765;DHT22;37835;53.256;6.456;2023-03-01T08:36:40;-2.20;99.90
51765;DHT22;37835;53.256;6.456;2023-03-01T08:39:08;-2.00;99.90
51765;DHT22;37835;53.256;6.456;2023-03-01T08:41:34;-0.90;99.90
51765;DHT22;37835;53.256;6.456;2023-03-01T08:43:59;-2.70;99.90
51765;DHT22;37835;53.256;6.456;2023-03-01T08:48:52;-0.10;99.90
51765;DHT22;37835;53.256;6.456;2023-03-01T08:51:19;0.50;99.90
51765;DHT22;37835;53.256;6.456;2023-03-01T08:53:46;0.10;99.90
51765;DHT22;37835;53.256;6.456;2023-03-01T08:56:12;0.40;99.90
51765;DHT22;37835;53.256;6.456;2023-03-01T09:01:09;0.70;99.90
51765;DHT22;37835;53.256;6.456;2023-03-01T09:03:35;2.40;99.90
51765;DHT22;37835;53.256;6.456;2023-03-01T09:06:01;1.10;99.90
51765;DHT22;37835;53.256;6.456;2023-03-01T09:08:27;1.30;99.90
51765;DHT22;37835;53.256;6.456;2023-03-01T09:10:53;1.40;99.90
51765;DHT22;37835;53.256;6.456;2023-03-01T09:13:18;1.60;99.90
51765;DHT22;37835;53.256;6.456;2023-03-01T09:15:44;1.80;99.90
51765;DHT22;37835;53.256;6.456;2023-03-01T09:18:09;1.90;99.90
51765;DHT22;37835;53.256;6.456;2023-03-01T09:20:35;2.10;99.90
51765;DHT22;37835;53.256;6.456;2023-03-01T09:23:01;2.30;99.90
51765;DHT22;37835;53.256;6.456;2023-03-01T09:25:26;2.40;99.90
51765;DHT22;37835;53.256;6.456;2023-03-01T09:27:52;2.60;99.90
51765;DHT22;37835;53.256;6.456;2023-03-01T09:30:18;2.80;99.90
51765;DHT22;37835;53.256;6.456;2023-03-01T09:32:44;2.90;99.90
51765;DHT22;37835;53.256;6.456;2023-03-01T09:35:11;3.10;99.90
51765;DHT22;37835;53.256;6.456;2023-03-01T09:37:37;3.20;99.90
51765;DHT22;37835;53.256;6.456;2023-03-01T09:40:09;3.30;99.90
51765;DHT22;37835;53.256;6.456;2023-03-01T09:42:46;3.50;99.90
51765;DHT22;37835;53.256;6.456;2023-03-01T09:45:32;3.60;99.90
51765;DHT22;37835;53.256;6.456;2023-03-01T09:48:00;3.70;99.90
51765;DHT22;37835;53.256;6.456;2023-03-01T09:50:31;3.90;99.90
51765;DHT22;37835;53.256;6.456;2023-03-01T09:53:13;4.00;99.90
51765;DHT22;37835;53.256;6.456;2023-03-01T09:55:52;4.10;99.90
51765;DHT22;37835;53.256;6.456;2023-03-01T09:58:59;4.20;99.90
51765;DHT22;37835;53.256;6.456;2023-03-01T10:04:50;4.50;99.90
51765;DHT22;37835;53.256;6.456;2023-03-01T10:10:08;4.70;99.90
51765;DHT22;37835;53.256;6.456;2023-03-01T10:12:40;4.90;99.90
51765;DHT22;37835;53.256;6.456;2023-03-01T10:15:25;5.00;99.90
51765;DHT22;37835;53.256;6.456;2023-03-01T10:18:09;5.10;99.90
51765;DHT22;37835;53.256;6.456;2023-03-01T10:20:46;5.20;99.90
51765;DHT22;37835;53.256;6.456;2023-03-01T10:23:14;5.30;99.90
51765;DHT22;37835;53.256;6.456;2023-03-01T10:30:49;5.60;99.90
51765;DHT22;37835;53.256;6.456;2023-03-01T10:33:30;5.70;99.90
51765;DHT22;37835;53.256;6.456;2023-03-01T10:35:57;5.80;99.90
51765;DHT22;37835;53.256;6.456;2023-03-01T10:38:23;5.90;99.90
51765;DHT22;37835;53.256;6.456;2023-03-01T10:41:04;6.00;99.90
51765;DHT22;37835;53.256;6.456;2023-03-01T10:46:30;6.20;99.90
51765;DHT22;37835;53.256;6.456;2023-03-01T10:49:12;6.30;99.90
51765;DHT22;37835;53.256;6.456;2023-03-01T10:51:44;6.40;99.90
51765;DHT22;37835;53.256;6.456;2023-03-01T10:54:22;6.40;99.90
51765;DHT22;37835;53.256;6.456;2023-03-01T10:56:54;6.60;99.90
51765;DHT22;37835;53.256;6.456;2023-03-01T10:59:41;6.60;99.90
51765;DHT22;37835;53.256;6.456;2023-03-01T11:04:35;6.80;99.90
51765;DHT22;37835;53.256;6.456;2023-03-01T11:07:01;6.80;99.90
51765;DHT22;37835;53.256;6.456;2023-03-01T11:09:31;6.90;99.90
51765;DHT22;37835;53.256;6.456;2023-03-01T11:12:03;7.00;99.90
51765;DHT22;37835;53.256;6.456;2023-03-01T11:14:36;7.00;99.90
51765;DHT22;37835;53.256;6.456;2023-03-01T11:17:04;7.10;99.90
51765;DHT22;37835;53.256;6.456;2023-03-01T11:19:31;7.10;99.90
51765;DHT22;37835;53.256;6.456;2023-03-01T11:22:07;7.20;99.90
51765;DHT22;37835;53.256;6.456;2023-03-01T11:24:46;7.20;99.90
51765;DHT22;37835;53.256;6.456;2023-03-01T11:27:26;7.30;99.90
51765;DHT22;37835;53.256;6.456;2023-03-01T11:30:03;7.40;99.90
51765;DHT22;37835;53.256;6.456;2023-03-01T11:32:44;7.40;99.90
51765;DHT22;37835;53.256;6.456;2023-03-01T11:35:18;7.50;99.90
51765;DHT22;37835;53.256;6.456;2023-03-01T11:40:33;7.60;99.90
51765;DHT22;37835;53.256;6.456;2023-03-01T11:51:23;7.80;99.90
51765;DHT22;37835;53.256;6.456;2023-03-01T11:54:02;7.80;99.90
51765;DHT22;37835;53.256;6.456;2023-03-01T11:56:43;7.90;99.90
51765;DHT22;37835;53.256;6.456;2023-03-01T12:05:20;8.00;99.90
51765;DHT22;37835;53.256;6.456;2023-03-01T12:10:29;8.10;99.90
51765;DHT22;37835;53.256;6.456;2023-03-01T12:15:55;8.20;99.90
51765;DHT22;37835;53.256;6.456;2023-03-01T12:18:53;8.30;99.90
51765;DHT22;37835;53.256;6.456;2023-03-01T12:21:33;8.40;99.90
51765;DHT22;37835;53.256;6.456;2023-03-01T12:30:17;8.40;99.90
51765;DHT22;37835;53.256;6.456;2023-03-01T12:35:56;8.50;99.90
51765;DHT22;37835;53.256;6.456;2023-03-01T12:46:38;8.60;99.90
51765;DHT22;37835;53.256;6.456;2023-03-01T12:49:13;8.70;99.90
51765;DHT22;37835;53.256;6.456;2023-03-01T12:51:50;8.70;99.90
51765;DHT22;37835;53.256;6.456;2023-03-01T12:54:24;8.70;99.90
51765;DHT22;37835;53.256;6.456;2023-03-01T12:56:51;8.80;99.90
51765;DHT22;37835;53.256;6.456;2023-03-01T13:01:53;8.90;99.90
51765;DHT22;37835;53.256;6.456;2023-03-01T13:07:02;8.90;99.90
51765;DHT22;37835;53.256;6.456;2023-03-01T13:12:01;9.00;99.90
51765;DHT22;37835;53.256;6.456;2023-03-01T13:16:58;9.10;99.90
51765;DHT22;37835;53.256;6.456;2023-03-01T13:19:25;9.10;99.90
51765;DHT22;37835;53.256;6.456;2023-03-01T13:21:53;9.10;99.90
51765;DHT22;37835;53.256;6.456;2023-03-01T13:24:43;9.10;99.90
51765;DHT22;37835;53.256;6.456;2023-03-01T13:27:11;9.20;99.90
51765;DHT22;37835;53.256;6.456;2023-03-01T13:29:48;9.20;99.90
51765;DHT22;37835;53.256;6.456;2023-03-01T13:32:33;9.20;99.90
51765;DHT22;37835;53.256;6.456;2023-03-01T13:35:01;9.30;99.90
51765;DHT22;37835;53.256;6.456;2023-03-01T13:37:36;9.30;99.90
51765;DHT22;37835;53.256;6.456;2023-03-01T13:40:56;9.30;99.90
51765;DHT22;37835;53.256;6.456;2023-03-01T13:42:52;9.30;99.90
51765;DHT22;37835;53.256;6.456;2023-03-01T13:45:40;9.30;99.90
51765;DHT22;37835;53.256;6.456;2023-03-01T13:48:26;9.30;99.90
51765;DHT22;37835;53.256;6.456;2023-03-01T13:50:57;9.40;99.90
51765;DHT22;37835;53.256;6.456;2023-03-01T13:53:26;9.40;99.90
51765;DHT22;37835;53.256;6.456;2023-03-01T13:56:12;9.40;99.90
51765;DHT22;37835;53.256;6.456;2023-03-01T13:58:48;9.50;99.90
51765;DHT22;37835;53.256;6.456;2023-03-01T14:03:50;9.60;99.90
51765;DHT22;37835;53.256;6.456;2023-03-01T14:06:21;9.50;99.90
51765;DHT22;37835;53.256;6.456;2023-03-01T14:08:49;9.50;99.90
51765;DHT22;37835;53.256;6.456;2023-03-01T14:11:47;9.40;99.90
51765;DHT22;37835;53.256;6.456;2023-03-01T14:19:40;9.40;99.90
51765;DHT22;37835;53.256;6.456;2023-03-01T14:22:23;9.40;99.90
51765;DHT22;37835;53.256;6.456;2023-03-01T14:25:01;9.40;99.90
51765;DHT22;37835;53.256;6.456;2023-03-01T14:27:33;9.40;99.90
51765;DHT22;37835;53.256;6.456;2023-03-01T14:30:11;9.40;99.90
51765;DHT22;37835;53.256;6.456;2023-03-01T14:32:38;9.40;99.90
51765;DHT22;37835;53.256;6.456;2023-03-01T14:35:19;9.40;99.90
51765;DHT22;37835;53.256;6.456;2023-03-01T14:37:45;9.50;99.90
51765;DHT22;37835;53.256;6.456;2023-03-01T14:40:41;9.50;99.90
51765;DHT22;37835;53.256;6.456;2023-03-01T14:43:10;9.50;99.90
51765;DHT22;37835;53.256;6.456;2023-03-01T14:45:37;9.50;99.90
51765;DHT22;37835;53.256;6.456;2023-03-01T14:48:05;9.50;99.90
51765;DHT22;37835;53.256;6.456;2023-03-01T14:50:33;9.50;99.90
51765;DHT22;37835;53.256;6.456;2023-03-01T14:53:02;9.50;99.90
51765;DHT22;37835;53.256;6.456;2023-03-01T14:55:38;9.50;99.90
51765;DHT22;37835;53.256;6.456;2023-03-01T14:58:11;9.50;99.90
51765;DHT22;37835;53.256;6.456;2023-03-01T15:00:37;9.40;99.90
51765;DHT22;37835;53.256;6.456;2023-03-01T15:03:12;9.40;99.90
51765;DHT22;37835;53.256;6.456;2023-03-01T15:05:40;9.30;99.90
51765;DHT22;37835;53.256;6.456;2023-03-01T15:08:07;9.30;99.90
51765;DHT22;37835;53.256;6.456;2023-03-01T15:10:56;9.30;99.90
51765;DHT22;37835;53.256;6.456;2023-03-01T15:13:24;9.20;99.90
51765;DHT22;37835;53.256;6.456;2023-03-01T15:15:51;9.20;99.90
51765;DHT22;37835;53.256;6.456;2023-03-01T15:18:22;9.20;99.90
51765;DHT22;37835;53.256;6.456;2023-03-01T15:20:51;9.20;99.90
51765;DHT22;37835;53.256;6.456;2023-03-01T15:23:23;9.10;99.90
51765;DHT22;37835;53.256;6.456;2023-03-01T15:25:51;9.10;99.90
51765;DHT22;37835;53.256;6.456;2023-03-01T15:28:23;9.00;99.90
51765;DHT22;37835;53.256;6.456;2023-03-01T15:30:55;8.90;99.90
51765;DHT22;37835;53.256;6.456;2023-03-01T15:35:51;8.90;99.90
51765;DHT22;37835;53.256;6.456;2023-03-01T15:40:53;8.90;99.90
51765;DHT22;37835;53.256;6.456;2023-03-01T15:43:42;8.80;99.90
51765;DHT22;37835;53.256;6.456;2023-03-01T15:46:29;8.80;99.90
51765;DHT22;37835;53.256;6.456;2023-03-01T15:48:58;8.80;99.90
51765;DHT22;37835;53.256;6.456;2023-03-01T15:51:43;8.70;99.90
51765;DHT22;37835;53.256;6.456;2023-03-01T15:54:19;8.60;99.90
51765;DHT22;37835;53.256;6.456;2023-03-01T15:56:46;8.60;99.90
51765;DHT22;37835;53.256;6.456;2023-03-01T15:59:12;8.50;99.90
51765;DHT22;37835;53.256;6.456;2023-03-01T16:01:41;8.10;99.90
51765;DHT22;37835;53.256;6.456;2023-03-01T16:04:12;8.30;99.90
51765;DHT22;37835;53.256;6.456;2023-03-01T16:06:46;8.20;99.90
51765;DHT22;37835;53.256;6.456;2023-03-01T16:09:18;8.10;99.90
51765;DHT22;37835;53.256;6.456;2023-03-01T16:11:44;8.00;99.90
51765;DHT22;37835;53.256;6.456;2023-03-01T16:14:09;7.90;99.90
51765;DHT22;37835;53.256;6.456;2023-03-01T16:16:35;7.80;99.90
51765;DHT22;37835;53.256;6.456;2023-03-01T16:19:01;7.70;99.90
51765;DHT22;37835;53.256;6.456;2023-03-01T16:21:26;7.70;99.90
51765;DHT22;37835;53.256;6.456;2023-03-01T16:23:52;7.60;99.90
51765;DHT22;37835;53.256;6.456;2023-03-01T16:26:18;8.40;99.90
51765;DHT22;37835;53.256;6.456;2023-03-01T16:28:45;7.40;99.90
51765;DHT22;37835;53.256;6.456;2023-03-01T16:31:11;7.30;99.90
51765;DHT22;37835;53.256;6.456;2023-03-01T16:33:37;7.30;99.90
51765;DHT22;37835;53.256;6.456;2023-03-01T16:36:11;7.20;99.90
51765;DHT22;37835;53.256;6.456;2023-03-01T16:38:37;7.10;99.90
51765;DHT22;37835;53.256;6.456;2023-03-01T16:41:04;7.30;99.90
51765;DHT22;37835;53.256;6.456;2023-03-01T16:43:31;6.90;99.90
51765;DHT22;37835;53.256;6.456;2023-03-01T16:45:57;6.80;99.90
51765;DHT22;37835;53.256;6.456;2023-03-01T16:48:24;6.40;99.90
51765;DHT22;37835;53.256;6.456;2023-03-01T16:51:00;6.60;99.90
51765;DHT22;37835;53.256;6.456;2023-03-01T16:53:26;6.60;99.90
51765;DHT22;37835;53.256;6.456;2023-03-01T16:55:58;6.50;99.90
51765;DHT22;37835;53.256;6.456;2023-03-01T16:58:24;6.40;99.90
51765;DHT22;37835;53.256;6.456;2023-03-01T17:00:53;6.30;99.90
51765;DHT22;37835;53.256;6.456;2023-03-01T17:03:20;6.20;99.90
51765;DHT22;37835;53.256;6.456;2023-03-01T17:05:46;6.10;99.90
51765;DHT22;37835;53.256;6.456;2023-03-01T17:08:12;6.00;99.90
51765;DHT22;37835;53.256;6.456;2023-03-01T17:10:38;5.90;99.90
51765;DHT22;37835;53.256;6.456;2023-03-01T17:13:03;5.80;99.90
51765;DHT22;37835;53.256;6.456;2023-03-01T17:15:29;5.80;99.90
51765;DHT22;37835;53.256;6.456;2023-03-01T17:17:55;5.70;99.90
51765;DHT22;37835;53.256;6.456;2023-03-01T17:20:20;5.60;99.90
51765;DHT22;37835;53.256;6.456;2023-03-01T17:22:46;5.60;99.90
51765;DHT22;37835;53.256;6.456;2023-03-01T17:25:11;5.50;99.90
51765;DHT22;37835;53.256;6.456;2023-03-01T17:27:38;5.40;99.90
51765;DHT22;37835;53.256;6.456;2023-03-01T17:30:06;5.40;99.90
51765;DHT22;37835;53.256;6.456;2023-03-01T17:32:32;5.30;99.90
51765;DHT22;37835;53.256;6.456;2023-03-01T17:34:57;5.20;99.90
51765;DHT22;37835;53.256;6.456;2023-03-01T17:37:23;5.20;99.90
51765;DHT22;37835;53.256;6.456;2023-03-01T17:39:49;5.10;99.90
51765;DHT22;37835;53.256;6.456;2023-03-01T17:42:14;5.00;99.90
51765;DHT22;37835;53.256;6.456;2023-03-01T17:44:40;5.00;99.90